Warman, Minnesota
Current Conditions -  °F | °C
As of 6:25 PM on Sunday 21 Dec 2014 (Local Time) from KJMR Reporting Station
Overcast Overcast  
Wind Chill: 30°   Ceiling: 600
Heat Index: 34°   Visibility: 7mi
Dew Point: 32°   Wind: 5mph
Humidity: 93%   Direction: 140°SE
Pressure: 29.73"   Gusts: NA
Location:  45.9652°N, 93.2874°W
Report Text: KJMR 220025Z AUTO 14004KT 7SM OVC006 01/00 A2973 RMK AO2
Loading
Personal Weather Stations






























Interactive Weather Map New forecast layout! Learn more

10-Day Weather Forecast

Advertisements
Track Severe Weather on mobile